Prudentopolis, Brazil
Current Conditions -  °F | °C
As of 6:00 PM on Friday 31 Oct 2014 (Local Time) from SBBI Reporting Station
Scattered Clouds Scattered Clouds  
Wind Chill: 82°   Ceiling: Unl
Heat Index: 82°   Visibility: 6mi
Dew Point: 59°   Wind: 6mph
Humidity: 45%   Direction: 360°N
Pressure: 29.94"   Gusts: NA
Location:  25.21°S, 50.98°W
Report Text: SBBI 312000Z 36005KT 9999 FEW050TCU SCT080 28/15 Q1014
Loading
Personal Weather Stations






























Interactive Weather Map
Tropical Storm Tracking
New forecast layout! Learn more

10-Day Weather Forecast

Advertisements
Track Severe Weather on mobile